sensor_id;sensor_type;location;lat;lon;timestamp;pressure;altitude;pressure_sealevel;temperature;humidity
26083;BME280;13848;49.018;12.078;2023-10-31T00:00:24;95957.66;;;12.38;90.75
26083;BME280;13848;49.018;12.078;2023-10-31T00:02:50;95951.16;;;12.39;90.09
26083;BME280;13848;49.018;12.078;2023-10-31T00:05:15;95952.03;;;12.24;91.57
26083;BME280;13848;49.018;12.078;2023-10-31T00:07:41;95957.94;;;12.41;90.60
26083;BME280;13848;49.018;12.078;2023-10-31T00:10:08;95955.75;;;12.48;89.85
26083;BME280;13848;49.018;12.078;2023-10-31T00:12:34;95958.66;;;12.57;89.48
26083;BME280;13848;49.018;12.078;2023-10-31T00:15:00;95946.50;;;12.60;89.99
26083;BME280;13848;49.018;12.078;2023-10-31T00:17:27;95954.63;;;12.55;90.36
26083;BME280;13848;49.018;12.078;2023-10-31T00:19:53;95964.13;;;12.47;90.80
26083;BME280;13848;49.018;12.078;2023-10-31T00:22:19;95968.16;;;12.49;91.02
26083;BME280;13848;49.018;12.078;2023-10-31T00:24:45;95976.78;;;12.51;90.35
26083;BME280;13848;49.018;12.078;2023-10-31T00:27:11;95974.09;;;12.46;90.51
26083;BME280;13848;49.018;12.078;2023-10-31T00:29:37;95980.66;;;12.35;91.48
26083;BME280;13848;49.018;12.078;2023-10-31T00:32:03;95981.75;;;12.24;92.00
26083;BME280;13848;49.018;12.078;2023-10-31T00:34:30;95982.78;;;12.38;91.16
26083;BME280;13848;49.018;12.078;2023-10-31T00:36:56;95984.91;;;12.46;91.50
26083;BME280;13848;49.018;12.078;2023-10-31T00:39:22;95990.88;;;12.54;91.11
26083;BME280;13848;49.018;12.078;2023-10-31T00:41:48;95996.28;;;12.54;90.79
26083;BME280;13848;49.018;12.078;2023-10-31T00:44:14;95993.59;;;12.48;91.36
26083;BME280;13848;49.018;12.078;2023-10-31T00:46:40;95988.72;;;12.45;91.08
26083;BME280;13848;49.018;12.078;2023-10-31T00:49:06;95993.06;;;12.41;91.05
26083;BME280;13848;49.018;12.078;2023-10-31T00:51:33;95987.38;;;12.48;91.07
26083;BME280;13848;49.018;12.078;2023-10-31T00:53:59;95988.72;;;12.45;91.52
26083;BME280;13848;49.018;12.078;2023-10-31T00:56:25;95995.78;;;12.31;92.14
26083;BME280;13848;49.018;12.078;2023-10-31T00:58:51;95981.69;;;12.44;91.59
26083;BME280;13848;49.018;12.078;2023-10-31T01:01:17;95981.19;;;12.32;92.39
26083;BME280;13848;49.018;12.078;2023-10-31T01:03:44;95985.28;;;12.09;93.72
26083;BME280;13848;49.018;12.078;2023-10-31T01:06:10;95982.31;;;12.21;93.83
26083;BME280;13848;49.018;12.078;2023-10-31T01:08:37;95983.38;;;12.20;93.44
26083;BME280;13848;49.018;12.078;2023-10-31T01:11:03;95995.28;;;12.09;94.79
26083;BME280;13848;49.018;12.078;2023-10-31T01:13:29;95996.91;;;11.99;95.21
26083;BME280;13848;49.018;12.078;2023-10-31T01:15:55;95999.09;;;12.08;94.89
26083;BME280;13848;49.018;12.078;2023-10-31T01:18:21;96001.22;;;12.11;94.61
26083;BME280;13848;49.018;12.078;2023-10-31T01:20:47;96001.78;;;12.03;95.22
26083;BME280;13848;49.018;12.078;2023-10-31T01:23:13;96005.56;;;11.91;96.38
26083;BME280;13848;49.018;12.078;2023-10-31T01:25:40;96005.31;;;11.93;96.31
26083;BME280;13848;49.018;12.078;2023-10-31T01:28:06;96005.06;;;11.89;97.09
26083;BME280;13848;49.018;12.078;2023-10-31T01:30:32;96008.28;;;12.07;95.51
26083;BME280;13848;49.018;12.078;2023-10-31T01:32:58;96005.00;;;12.20;94.25
26083;BME280;13848;49.018;12.078;2023-10-31T01:35:24;96016.63;;;12.15;94.82
26083;BME280;13848;49.018;12.078;2023-10-31T01:37:50;96013.69;;;12.02;95.61
26083;BME280;13848;49.018;12.078;2023-10-31T01:40:16;96010.97;;;12.07;95.21
26083;BME280;13848;49.018;12.078;2023-10-31T01:42:43;96015.28;;;12.18;94.35
26083;BME280;13848;49.018;12.078;2023-10-31T01:45:10;96016.09;;;12.18;94.12
26083;BME280;13848;49.018;12.078;2023-10-31T01:47:37;96012.03;;;12.16;93.83
26083;BME280;13848;49.018;12.078;2023-10-31T01:50:07;96013.13;;;11.99;94.95
26083;BME280;13848;49.018;12.078;2023-10-31T01:52:33;96017.19;;;12.02;94.36
26083;BME280;13848;49.018;12.078;2023-10-31T01:55:00;96010.69;;;12.08;94.05
26083;BME280;13848;49.018;12.078;2023-10-31T01:57:27;96016.63;;;12.05;94.23
26083;BME280;13848;49.018;12.078;2023-10-31T01:59:54;96022.31;;;11.98;94.44
26083;BME280;13848;49.018;12.078;2023-10-31T02:02:22;96023.41;;;11.97;94.88
26083;BME280;13848;49.018;12.078;2023-10-31T02:04:49;96015.00;;;12.09;94.19
26083;BME280;13848;49.018;12.078;2023-10-31T02:07:15;96015.84;;;11.89;95.61
26083;BME280;13848;49.018;12.078;2023-10-31T02:09:41;96011.78;;;11.92;95.18
26083;BME280;13848;49.018;12.078;2023-10-31T02:12:07;96017.47;;;11.95;94.66
26083;BME280;13848;49.018;12.078;2023-10-31T02:14:33;96022.88;;;11.85;95.58
26083;BME280;13848;49.018;12.078;2023-10-31T02:17:00;96020.13;;;11.80;95.63
26083;BME280;13848;49.018;12.078;2023-10-31T02:19:26;96030.97;;;11.85;95.69
26083;BME280;13848;49.018;12.078;2023-10-31T02:21:54;96026.38;;;11.91;95.50
26083;BME280;13848;49.018;12.078;2023-10-31T02:24:20;96032.56;;;11.81;95.81
26083;BME280;13848;49.018;12.078;2023-10-31T02:26:45;96042.53;;;11.81;96.04
26083;BME280;13848;49.018;12.078;2023-10-31T02:29:11;96048.78;;;11.91;96.02
26083;BME280;13848;49.018;12.078;2023-10-31T02:31:37;96044.44;;;11.80;96.45
26083;BME280;13848;49.018;12.078;2023-10-31T02:34:03;96054.69;;;11.73;96.60
26083;BME280;13848;49.018;12.078;2023-10-31T02:36:29;96056.84;;;11.71;96.42
26083;BME280;13848;49.018;12.078;2023-10-31T02:38:57;96066.28;;;11.68;97.01
26083;BME280;13848;49.018;12.078;2023-10-31T02:41:23;96056.84;;;11.56;98.14
26083;BME280;13848;49.018;12.078;2023-10-31T02:43:48;96060.63;;;11.60;97.52
26083;BME280;13848;49.018;12.078;2023-10-31T02:46:14;96065.22;;;11.54;97.44
26083;BME280;13848;49.018;12.078;2023-10-31T02:48:40;96070.03;;;11.52;97.74
26083;BME280;13848;49.018;12.078;2023-10-31T02:51:07;96071.38;;;11.44;98.08
26083;BME280;13848;49.018;12.078;2023-10-31T02:53:33;96067.88;;;11.39;98.55
26083;BME280;13848;49.018;12.078;2023-10-31T02:56:00;96061.66;;;11.38;97.76
26083;BME280;13848;49.018;12.078;2023-10-31T02:58:26;96057.59;;;11.36;98.37
26083;BME280;13848;49.018;12.078;2023-10-31T03:00:52;96065.44;;;11.37;97.90
26083;BME280;13848;49.018;12.078;2023-10-31T03:03:18;96071.91;;;11.36;97.90
26083;BME280;13848;49.018;12.078;2023-10-31T03:05:44;96074.84;;;11.30;98.17
26083;BME280;13848;49.018;12.078;2023-10-31T03:08:10;96085.38;;;11.36;98.11
26083;BME280;13848;49.018;12.078;2023-10-31T03:10:38;96081.91;;;11.31;98.04
26083;BME280;13848;49.018;12.078;2023-10-31T03:13:05;96091.84;;;11.20;99.03
26083;BME280;13848;49.018;12.078;2023-10-31T03:15:31;96088.31;;;11.25;99.16
26083;BME280;13848;49.018;12.078;2023-10-31T03:17:57;96090.22;;;11.24;99.42
26083;BME280;13848;49.018;12.078;2023-10-31T03:20:23;96101.00;;;11.24;98.51
26083;BME280;13848;49.018;12.078;2023-10-31T03:22:49;96100.16;;;11.08;99.66
26083;BME280;13848;49.018;12.078;2023-10-31T03:25:15;96103.38;;;11.10;98.83
26083;BME280;13848;49.018;12.078;2023-10-31T03:27:41;96100.91;;;10.99;98.94
26083;BME280;13848;49.018;12.078;2023-10-31T03:30:09;96106.81;;;10.90;99.96
26083;BME280;13848;49.018;12.078;2023-10-31T03:32:35;96101.16;;;10.92;99.74
26083;BME280;13848;49.018;12.078;2023-10-31T03:35:01;96099.53;;;10.91;99.41
26083;BME280;13848;49.018;12.078;2023-10-31T03:37:27;96104.41;;;10.99;97.93
26083;BME280;13848;49.018;12.078;2023-10-31T03:39:53;96113.25;;;10.89;98.04
26083;BME280;13848;49.018;12.078;2023-10-31T03:42:19;96118.69;;;10.95;98.22
26083;BME280;13848;49.018;12.078;2023-10-31T03:44:45;96118.19;;;11.03;97.54
26083;BME280;13848;49.018;12.078;2023-10-31T03:47:12;96123.06;;;11.06;97.42
26083;BME280;13848;49.018;12.078;2023-10-31T03:49:39;96118.22;;;11.08;97.46
26083;BME280;13848;49.018;12.078;2023-10-31T03:52:05;96103.63;;;11.04;97.41
26083;BME280;13848;49.018;12.078;2023-10-31T03:54:31;96112.22;;;10.90;97.60
26083;BME280;13848;49.018;12.078;2023-10-31T03:56:57;96115.41;;;10.87;98.04
26083;BME280;13848;49.018;12.078;2023-10-31T03:59:23;96109.72;;;10.84;97.95
26083;BME280;13848;49.018;12.078;2023-10-31T04:01:49;96114.38;;;10.93;98.54
26083;BME280;13848;49.018;12.078;2023-10-31T04:04:16;96116.97;;;10.78;98.10
26083;BME280;13848;49.018;12.078;2023-10-31T04:06:42;96119.19;;;10.86;98.25
26083;BME280;13848;49.018;12.078;2023-10-31T04:09:08;96108.13;;;10.83;96.91
26083;BME280;13848;49.018;12.078;2023-10-31T04:11:34;96126.75;;;10.89;97.17
26083;BME280;13848;49.018;12.078;2023-10-31T04:14:00;96121.38;;;10.95;95.20
26083;BME280;13848;49.018;12.078;2023-10-31T04:16:26;96123.47;;;10.82;94.96
26083;BME280;13848;49.018;12.078;2023-10-31T04:18:52;96130.75;;;10.82;93.97
26083;BME280;13848;49.018;12.078;2023-10-31T04:21:19;96143.97;;;10.83;93.68
26083;BME280;13848;49.018;12.078;2023-10-31T04:23:45;96146.06;;;10.71;92.68
26083;BME280;13848;49.018;12.078;2023-10-31T04:26:11;96161.16;;;10.72;91.97
26083;BME280;13848;49.018;12.078;2023-10-31T04:28:37;96167.06;;;10.69;91.32
26083;BME280;13848;49.018;12.078;2023-10-31T04:31:04;96161.16;;;10.72;91.31
26083;BME280;13848;49.018;12.078;2023-10-31T04:33:30;96161.69;;;10.69;90.58
26083;BME280;13848;49.018;12.078;2023-10-31T04:35:56;96169.50;;;10.71;89.82
26083;BME280;13848;49.018;12.078;2023-10-31T04:38:23;96170.84;;;10.68;89.89
26083;BME280;13848;49.018;12.078;2023-10-31T04:40:49;96162.25;;;10.76;89.94
26083;BME280;13848;49.018;12.078;2023-10-31T04:43:15;96160.66;;;10.75;88.72
26083;BME280;13848;49.018;12.078;2023-10-31T04:45:41;96157.09;;;10.70;90.17
26083;BME280;13848;49.018;12.078;2023-10-31T04:48:07;96149.28;;;10.68;89.89
26083;BME280;13848;49.018;12.078;2023-10-31T04:50:33;96146.88;;;10.72;90.69
26083;BME280;13848;49.018;12.078;2023-10-31T04:52:59;96164.13;;;10.71;90.65
26083;BME280;13848;49.018;12.078;2023-10-31T04:55:26;96175.47;;;10.78;90.09
26083;BME280;13848;49.018;12.078;2023-10-31T04:57:52;96185.13;;;10.69;89.15
26083;BME280;13848;49.018;12.078;2023-10-31T05:00:18;96188.88;;;10.62;89.50
26083;BME280;13848;49.018;12.078;2023-10-31T05:02:44;96181.09;;;10.71;89.32
26083;BME280;13848;49.018;12.078;2023-10-31T05:05:10;96185.91;;;10.64;88.34
26083;BME280;13848;49.018;12.078;2023-10-31T05:07:36;96195.34;;;10.66;88.42
26083;BME280;13848;49.018;12.078;2023-10-31T05:10:02;96179.47;;;10.70;88.02
26083;BME280;13848;49.018;12.078;2023-10-31T05:12:29;96182.72;;;10.67;88.47
26083;BME280;13848;49.018;12.078;2023-10-31T05:14:55;96177.09;;;10.74;88.30
26083;BME280;13848;49.018;12.078;2023-10-31T05:17:21;96196.78;;;10.74;87.54
26083;BME280;13848;49.018;12.078;2023-10-31T05:19:47;96206.97;;;10.67;87.82
26083;BME280;13848;49.018;12.078;2023-10-31T05:22:13;96221.78;;;10.70;87.76
26083;BME280;13848;49.018;12.078;2023-10-31T05:24:39;96210.47;;;10.68;87.77
26083;BME280;13848;49.018;12.078;2023-10-31T05:27:05;96211.88;;;10.75;87.46
26083;BME280;13848;49.018;12.078;2023-10-31T05:29:32;96216.63;;;10.63;87.84
26083;BME280;13848;49.018;12.078;2023-10-31T05:31:58;96224.59;;;10.48;86.56
26083;BME280;13848;49.018;12.078;2023-10-31T05:34:24;96233.75;;;10.47;87.68
26083;BME280;13848;49.018;12.078;2023-10-31T05:36:50;96235.03;;;10.39;87.35
26083;BME280;13848;49.018;12.078;2023-10-31T05:39:16;96248.25;;;10.41;86.77
26083;BME280;13848;49.018;12.078;2023-10-31T05:41:41;96254.19;;;10.43;87.13
26083;BME280;13848;49.018;12.078;2023-10-31T05:44:07;96251.53;;;10.48;87.37
26083;BME280;13848;49.018;12.078;2023-10-31T05:46:38;96252.34;;;10.48;87.43
26083;BME280;13848;49.018;12.078;2023-10-31T05:49:06;96265.25;;;10.46;86.77
26083;BME280;13848;49.018;12.078;2023-10-31T05:51:32;96266.19;;;10.57;87.31
26083;BME280;13848;49.018;12.078;2023-10-31T05:53:58;96270.97;;;10.50;86.73
26083;BME280;13848;49.018;12.078;2023-10-31T05:56:24;96273.91;;;10.21;88.38
26083;BME280;13848;49.018;12.078;2023-10-31T05:58:50;96283.22;;;10.35;88.41
26083;BME280;13848;49.018;12.078;2023-10-31T06:01:15;96291.44;;;10.51;87.65
26083;BME280;13848;49.018;12.078;2023-10-31T06:03:43;96292.97;;;10.42;87.16
26083;BME280;13848;49.018;12.078;2023-10-31T06:06:09;96297.00;;;10.39;87.15
26083;BME280;13848;49.018;12.078;2023-10-31T06:08:35;96307.56;;;10.46;86.89
26083;BME280;13848;49.018;12.078;2023-10-31T06:11:01;96303.59;;;10.53;86.50
26083;BME280;13848;49.018;12.078;2023-10-31T06:13:28;96304.94;;;10.51;86.19
26083;BME280;13848;49.018;12.078;2023-10-31T06:15:55;96304.94;;;10.51;85.94
26083;BME280;13848;49.018;12.078;2023-10-31T06:18:21;96313.97;;;10.39;86.26
26083;BME280;13848;49.018;12.078;2023-10-31T06:20:48;96311.81;;;10.42;86.76
26083;BME280;13848;49.018;12.078;2023-10-31T06:23:14;96318.09;;;10.47;86.22
26083;BME280;13848;49.018;12.078;2023-10-31T06:25:40;96318.94;;;10.53;86.13
26083;BME280;13848;49.018;12.078;2023-10-31T06:28:06;96330.13;;;10.39;85.22
26083;BME280;13848;49.018;12.078;2023-10-31T06:30:32;96334.09;;;10.32;85.14
26083;BME280;13848;49.018;12.078;2023-10-31T06:32:58;96342.84;;;10.44;84.97
26083;BME280;13848;49.018;12.078;2023-10-31T06:35:24;96346.91;;;10.47;85.28
26083;BME280;13848;49.018;12.078;2023-10-31T06:37:51;96363.09;;;10.47;84.94
26083;BME280;13848;49.018;12.078;2023-10-31T06:40:17;96369.59;;;10.51;85.25
26083;BME280;13848;49.018;12.078;2023-10-31T06:42:43;96367.91;;;10.45;84.37
26083;BME280;13848;49.018;12.078;2023-10-31T06:45:09;96381.88;;;10.42;84.29
26083;BME280;13848;49.018;12.078;2023-10-31T06:47:35;96388.16;;;10.47;83.90
26083;BME280;13848;49.018;12.078;2023-10-31T06:50:01;96400.19;;;10.39;83.28
26083;BME280;13848;49.018;12.078;2023-10-31T06:52:27;96406.72;;;10.44;83.66
26083;BME280;13848;49.018;12.078;2023-10-31T06:54:54;96410.97;;;10.39;83.52
26083;BME280;13848;49.018;12.078;2023-10-31T06:57:20;96415.34;;;10.46;83.13
26083;BME280;13848;49.018;12.078;2023-10-31T06:59:46;96411.44;;;10.58;83.43
26083;BME280;13848;49.018;12.078;2023-10-31T07:02:12;96411.78;;;10.40;83.48
26083;BME280;13848;49.018;12.078;2023-10-31T07:04:38;96415.97;;;10.53;82.86
26083;BME280;13848;49.018;12.078;2023-10-31T07:07:04;96421.34;;;10.53;83.43
26083;BME280;13848;49.018;12.078;2023-10-31T07:09:38;96404.38;;;10.52;82.59
26083;BME280;13848;49.018;12.078;2023-10-31T07:12:05;96410.03;;;10.51;83.14
26083;BME280;13848;49.018;12.078;2023-10-31T07:14:31;96405.91;;;10.70;82.89
26083;BME280;13848;49.018;12.078;2023-10-31T07:16:57;96413.59;;;10.83;83.03
26083;BME280;13848;49.018;12.078;2023-10-31T07:19:23;96415.19;;;10.79;82.78
26083;BME280;13848;49.018;12.078;2023-10-31T07:21:49;96421.19;;;10.86;82.90
26083;BME280;13848;49.018;12.078;2023-10-31T07:24:14;96417.50;;;10.98;83.12
26083;BME280;13848;49.018;12.078;2023-10-31T07:26:42;96421.34;;;11.07;82.79
26083;BME280;13848;49.018;12.078;2023-10-31T07:29:08;96409.25;;;11.09;82.05
26083;BME280;13848;49.018;12.078;2023-10-31T07:31:34;96402.03;;;11.15;82.50
26083;BME280;13848;49.018;12.078;2023-10-31T07:34:00;96393.34;;;11.13;82.04
26083;BME280;13848;49.018;12.078;2023-10-31T07:36:26;96394.69;;;11.10;82.45
26083;BME280;13848;49.018;12.078;2023-10-31T07:38:51;96399.06;;;11.16;81.92
26083;BME280;13848;49.018;12.078;2023-10-31T07:41:17;96402.25;;;11.08;81.51
26083;BME280;13848;49.018;12.078;2023-10-31T07:43:45;96400.53;;;10.97;81.26
26083;BME280;13848;49.018;12.078;2023-10-31T07:46:11;96402.03;;;11.15;82.13
26083;BME280;13848;49.018;12.078;2023-10-31T07:48:37;96412.28;;;11.18;80.97
26083;BME280;13848;49.018;12.078;2023-10-31T07:51:03;96409.13;;;11.26;81.30
26083;BME280;13848;49.018;12.078;2023-10-31T07:53:29;96412.47;;;11.38;80.65
26083;BME280;13848;49.018;12.078;2023-10-31T07:55:55;96402.47;;;11.07;79.54
26083;BME280;13848;49.018;12.078;2023-10-31T07:58:21;96403.88;;;11.09;79.51
26083;BME280;13848;49.018;12.078;2023-10-31T08:00:48;96396.41;;;11.22;80.47
26083;BME280;13848;49.018;12.078;2023-10-31T08:03:14;96393.66;;;11.16;78.97
26083;BME280;13848;49.018;12.078;2023-10-31T08:05:40;96394.03;;;11.30;80.07
26083;BME280;13848;49.018;12.078;2023-10-31T08:08:06;96384.81;;;11.21;78.80
26083;BME280;13848;49.018;12.078;2023-10-31T08:10:32;96385.19;;;11.35;78.97
26083;BME280;13848;49.018;12.078;2023-10-31T08:12:58;96388.00;;;11.50;79.47
26083;BME280;13848;49.018;12.078;2023-10-31T08:15:24;96396.78;;;11.72;79.24
26083;BME280;13848;49.018;12.078;2023-10-31T08:17:51;96401.31;;;11.62;78.38
26083;BME280;13848;49.018;12.078;2023-10-31T08:20:17;96407.47;;;11.89;78.86
26083;BME280;13848;49.018;12.078;2023-10-31T08:22:44;96418.38;;;12.15;78.17
26083;BME280;13848;49.018;12.078;2023-10-31T08:25:10;96416.34;;;12.42;78.07
26083;BME280;13848;49.018;12.078;2023-10-31T08:27:36;96411.81;;;12.68;76.41
26083;BME280;13848;49.018;12.078;2023-10-31T08:30:03;96421.34;;;12.76;75.22
26083;BME280;13848;49.018;12.078;2023-10-31T08:32:29;96426.25;;;12.94;74.98
26083;BME280;13848;49.018;12.078;2023-10-31T08:34:56;96428.66;;;12.91;74.33
26083;BME280;13848;49.018;12.078;2023-10-31T08:37:22;96444.50;;;12.57;73.33
26083;BME280;13848;49.018;12.078;2023-10-31T08:39:48;96447.72;;;12.48;73.75
26083;BME280;13848;49.018;12.078;2023-10-31T08:42:14;96444.47;;;12.41;73.78
26083;BME280;13848;49.018;12.078;2023-10-31T08:44:40;96457.56;;;12.17;71.97
26083;BME280;13848;49.018;12.078;2023-10-31T08:47:06;96453.91;;;11.91;73.40
26083;BME280;13848;49.018;12.078;2023-10-31T08:49:32;96448.91;;;12.15;73.72
26083;BME280;13848;49.018;12.078;2023-10-31T08:51:59;96455.19;;;12.26;73.75
26083;BME280;13848;49.018;12.078;2023-10-31T08:54:25;96452.41;;;12.11;72.75
26083;BME280;13848;49.018;12.078;2023-10-31T08:56:51;96463.13;;;11.95;73.32
26083;BME280;13848;49.018;12.078;2023-10-31T08:59:17;96470.19;;;12.02;72.64
26083;BME280;13848;49.018;12.078;2023-10-31T09:01:43;96489.19;;;11.80;71.99
26083;BME280;13848;49.018;12.078;2023-10-31T09:04:09;96511.47;;;11.65;72.71
26083;BME280;13848;49.018;12.078;2023-10-31T09:06:35;96505.00;;;11.66;73.48
26083;BME280;13848;49.018;12.078;2023-10-31T09:09:02;96501.78;;;11.69;71.97
26083;BME280;13848;49.018;12.078;2023-10-31T09:11:28;96502.31;;;11.66;73.44
26083;BME280;13848;49.018;12.078;2023-10-31T09:13:54;96494.38;;;11.86;73.34
26083;BME280;13848;49.018;12.078;2023-10-31T09:16:20;96496.44;;;11.74;73.03
26083;BME280;13848;49.018;12.078;2023-10-31T09:18:46;96511.25;;;11.39;72.38
26083;BME280;13848;49.018;12.078;2023-10-31T09:21:12;96506.34;;;11.36;72.92
26083;BME280;13848;49.018;12.078;2023-10-31T09:23:38;96511.25;;;11.39;72.83
26083;BME280;13848;49.018;12.078;2023-10-31T09:26:05;96520.16;;;11.40;72.77
26083;BME280;13848;49.018;12.078;2023-10-31T09:28:31;96528.63;;;11.54;72.98
26083;BME280;13848;49.018;12.078;2023-10-31T09:30:57;96524.47;;;11.41;73.42
26083;BME280;13848;49.018;12.078;2023-10-31T09:33:23;96530.69;;;11.41;73.51
26083;BME280;13848;49.018;12.078;2023-10-31T09:35:49;96533.75;;;11.50;73.36
26083;BME280;13848;49.018;12.078;2023-10-31T09:38:15;96533.31;;;11.63;73.32
26083;BME280;13848;49.018;12.078;2023-10-31T09:40:41;96537.69;;;11.37;73.14
26083;BME280;13848;49.018;12.078;2023-10-31T09:43:08;96532.84;;;11.39;73.17
26083;BME280;13848;49.018;12.078;2023-10-31T09:45:34;96535.38;;;11.24;73.80
26083;BME280;13848;49.018;12.078;2023-10-31T09:48:01;96525.59;;;11.18;73.99
26083;BME280;13848;49.018;12.078;2023-10-31T09:50:27;96529.75;;;11.26;74.11
26083;BME280;13848;49.018;12.078;2023-10-31T09:52:56;96505.78;;;11.34;74.10
26083;BME280;13848;49.018;12.078;2023-10-31T09:55:22;96510.84;;;11.26;73.48
26083;BME280;13848;49.018;12.078;2023-10-31T09:57:48;96488.94;;;11.22;73.27
26083;BME280;13848;49.018;12.078;2023-10-31T10:00:16;96477.63;;;11.20;73.73
26083;BME280;13848;49.018;12.078;2023-10-31T10:02:43;96474.06;;;11.46;73.38
26083;BME280;13848;49.018;12.078;2023-10-31T10:05:09;96475.50;;;11.54;73.02
26083;BME280;13848;49.018;12.078;2023-10-31T10:07:35;96485.03;;;11.67;74.10
26083;BME280;13848;49.018;12.078;2023-10-31T10:10:01;96498.91;;;12.13;76.68
26083;BME280;13848;49.018;12.078;2023-10-31T10:12:27;96505.78;;;12.36;74.91
26083;BME280;13848;49.018;12.078;2023-10-31T10:14:53;96504.34;;;12.23;72.57
26083;BME280;13848;49.018;12.078;2023-10-31T10:17:22;96503.69;;;12.06;72.30
26083;BME280;13848;49.018;12.078;2023-10-31T10:20:04;96506.31;;;11.90;72.10
26083;BME280;13848;49.018;12.078;2023-10-31T10:22:30;96514.56;;;11.79;71.43
26083;BME280;13848;49.018;12.078;2023-10-31T10:24:57;96515.88;;;11.76;72.51
26083;BME280;13848;49.018;12.078;2023-10-31T10:27:23;96523.75;;;11.78;72.40
26083;BME280;13848;49.018;12.078;2023-10-31T10:29:52;96529.75;;;11.58;71.81
26083;BME280;13848;49.018;12.078;2023-10-31T10:32:19;96535.69;;;11.55;71.89
26083;BME280;13848;49.018;12.078;2023-10-31T10:34:46;96543.13;;;11.42;71.68
26083;BME280;13848;49.018;12.078;2023-10-31T10:37:12;96551.22;;;11.15;72.57
26083;BME280;13848;49.018;12.078;2023-10-31T10:39:39;96551.34;;;11.04;72.78
26083;BME280;13848;49.018;12.078;2023-10-31T10:42:09;96561.88;;;10.83;74.55
26083;BME280;13848;49.018;12.078;2023-10-31T10:44:36;96560.59;;;11.13;74.08
26083;BME280;13848;49.018;12.078;2023-10-31T10:47:04;96555.75;;;10.88;73.99
26083;BME280;13848;49.018;12.078;2023-10-31T10:49:33;96554.19;;;10.92;74.90
26083;BME280;13848;49.018;12.078;2023-10-31T10:52:06;96553.78;;;11.05;74.58
26083;BME280;13848;49.018;12.078;2023-10-31T10:54:40;96549.94;;;11.01;74.26
26083;BME280;13848;49.018;12.078;2023-10-31T10:57:14;96549.06;;;10.96;74.93
26083;BME280;13848;49.018;12.078;2023-10-31T10:59:45;96550.00;;;11.06;74.15
26083;BME280;13848;49.018;12.078;2023-10-31T11:02:13;96546.94;;;11.19;74.00
26083;BME280;13848;49.018;12.078;2023-10-31T11:04:41;96556.19;;;11.02;74.06
26083;BME280;13848;49.018;12.078;2023-10-31T11:07:09;96555.00;;;10.92;74.67
26083;BME280;13848;49.018;12.078;2023-10-31T11:09:36;96551.59;;;11.02;74.39
26083;BME280;13848;49.018;12.078;2023-10-31T11:12:03;96548.03;;;10.97;74.01
26083;BME280;13848;49.018;12.078;2023-10-31T11:14:30;96549.03;;;10.90;74.46
26083;BME280;13848;49.018;12.078;2023-10-31T11:17:00;96553.50;;;11.02;73.65
26083;BME280;13848;49.018;12.078;2023-10-31T11:19:27;96547.09;;;11.08;73.70
26083;BME280;13848;49.018;12.078;2023-10-31T11:21:54;96543.69;;;10.96;73.81
26083;BME280;13848;49.018;12.078;2023-10-31T11:24:22;96554.41;;;11.12;73.97
26083;BME280;13848;49.018;12.078;2023-10-31T11:26:52;96567.59;;;11.09;73.76
26083;BME280;13848;49.018;12.078;2023-10-31T11:29:18;96577.94;;;11.17;73.80
26083;BME280;13848;49.018;12.078;2023-10-31T11:31:44;96580.38;;;11.18;74.59
26083;BME280;13848;49.018;12.078;2023-10-31T11:34:12;96584.38;;;11.38;74.61
26083;BME280;13848;49.018;12.078;2023-10-31T11:36:38;96601.31;;;11.33;75.53
26083;BME280;13848;49.018;12.078;2023-10-31T11:39:10;96593.91;;;11.24;75.97
26083;BME280;13848;49.018;12.078;2023-10-31T11:41:39;96592.66;;;11.31;75.98
26083;BME280;13848;49.018;12.078;2023-10-31T11:44:05;96589.97;;;11.31;76.31
26083;BME280;13848;49.018;12.078;2023-10-31T11:46:31;96596.88;;;11.22;76.98
26083;BME280;13848;49.018;12.078;2023-10-31T11:48:57;96597.13;;;10.99;77.75
26083;BME280;13848;49.018;12.078;2023-10-31T11:51:23;96591.41;;;10.95;78.65
26083;BME280;13848;49.018;12.078;2023-10-31T11:53:49;96576.63;;;10.98;79.29
26083;BME280;13848;49.018;12.078;2023-10-31T11:56:16;96573.88;;;10.92;78.64
26083;BME280;13848;49.018;12.078;2023-10-31T11:58:43;96571.16;;;10.92;79.02
26083;BME280;13848;49.018;12.078;2023-10-31T12:01:10;96572.88;;;10.99;79.65
26083;BME280;13848;49.018;12.078;2023-10-31T12:03:37;96571.09;;;11.09;79.13
26083;BME280;13848;49.018;12.078;2023-10-31T12:06:04;96567.53;;;11.04;79.21
26083;BME280;13848;49.018;12.078;2023-10-31T12:08:31;96565.03;;;11.19;78.92
26083;BME280;13848;49.018;12.078;2023-10-31T12:11:06;96563.94;;;11.20;78.37
26083;BME280;13848;49.018;12.078;2023-10-31T12:13:33;96565.72;;;11.36;78.15
26083;BME280;13848;49.018;12.078;2023-10-31T12:16:00;96567.75;;;11.24;78.15
26083;BME280;13848;49.018;12.078;2023-10-31T12:18:27;96569.84;;;11.17;78.29
26083;BME280;13848;49.018;12.078;2023-10-31T12:20:53;96562.88;;;10.99;78.12
26083;BME280;13848;49.018;12.078;2023-10-31T12:23:19;96560.19;;;10.99;78.72
26083;BME280;13848;49.018;12.078;2023-10-31T12:25:48;96564.28;;;11.02;78.47
26083;BME280;13848;49.018;12.078;2023-10-31T12:28:17;96569.09;;;11.22;78.46
26083;BME280;13848;49.018;12.078;2023-10-31T12:30:44;96570.22;;;11.26;77.97
26083;BME280;13848;49.018;12.078;2023-10-31T12:33:12;96573.44;;;11.50;78.08
26083;BME280;13848;49.018;12.078;2023-10-31T12:35:39;96586.28;;;11.69;77.06
26083;BME280;13848;49.018;12.078;2023-10-31T12:38:06;96582.78;;;11.69;76.48
26083;BME280;13848;49.018;12.078;2023-10-31T12:40:32;96594.13;;;11.71;75.98
26083;BME280;13848;49.018;12.078;2023-10-31T12:42:59;96581.81;;;11.80;75.65
26083;BME280;13848;49.018;12.078;2023-10-31T12:45:25;96586.91;;;11.77;74.99